Time;durP1;ratioP1;P1;durP2;ratioP2;P2;SDS_P1;SDS_P2;PMS_P1;PMS_P2;Temp;Humidity;BMP_temperature;BMP_pressure;BME280_temperature;BME280_humidity;BME280_pressure;Samples;Min_cycle;Max_cycle;Signal;HPM_P1;HPM_P2
2022/08/08 00:01:55;;;;;;;;;3.33;3.00;;;;;20.78;41.31;101612.38;5098238;27;46246;-62
2022/08/08 00:04:30;;;;;;;;;4.33;4.33;;;;;20.76;42.09;101618.88;5098215;27;45312;-63
2022/08/08 00:07:04;;;;;;;;;5.67;2.33;;;;;20.72;42.24;101614.72;5097887;27;45983;-64
2022/08/08 00:09:51;;;;;;;;;3.00;3.00;;;;;20.70;42.45;101625.66;5098657;27;45412;-64
2022/08/08 00:12:25;;;;;;;;;2.00;2.00;;;;;20.70;42.14;101619.38;5094662;27;46240;-63
2022/08/08 00:15:08;;;;;;;;;4.67;3.33;;;;;20.69;42.16;101618.53;5076590;28;45454;-64
2022/08/08 00:17:49;;;;;;;;;1.33;1.33;;;;;20.66;42.49;101615.22;5089798;27;45345;-62
2022/08/08 00:20:23;;;;;;;;;2.00;2.00;;;;;20.63;42.55;101610.06;5098242;27;45393;-63
2022/08/08 00:22:53;;;;;;;;;3.00;2.00;;;;;20.56;42.61;101602.44;5096865;27;47112;-63
2022/08/08 00:25:24;;;;;;;;;1.33;1.33;;;;;20.56;42.99;101607.84;5079653;27;45287;-62
2022/08/08 00:27:53;;;;;;;;;2.00;2.00;;;;;20.43;43.28;101607.16;5097443;27;45324;-63
2022/08/08 00:30:19;;;;;;;;;2.00;2.00;;;;;20.39;43.51;101610.19;5098451;27;45350;-64
2022/08/08 00:32:50;;;;;;;;;3.00;3.00;;;;;20.35;43.46;101615.00;5097518;27;45495;-63
2022/08/08 00:35:52;;;;;;;;;4.00;3.00;;;;;20.33;43.83;101606.16;5098308;27;45377;-61
2022/08/08 00:38:46;;;;;;;;;2.33;2.00;;;;;20.38;43.21;101612.03;5098788;27;45378;-61
2022/08/08 00:41:55;;;;;;;;;4.00;2.00;;;;;20.36;43.31;101614.00;5098906;27;45537;-64
2022/08/08 00:44:58;;;;;;;;;2.67;2.67;;;;;20.25;44.13;101603.22;5065666;27;46470;-64
2022/08/08 00:47:42;;;;;;;;;3.00;3.00;;;;;20.16;44.41;101599.41;5097580;27;45508;-63
2022/08/08 00:50:32;;;;;;;;;1.00;1.00;;;;;20.17;44.27;101602.97;5079070;27;45469;-62
2022/08/08 00:53:03;;;;;;;;;5.33;4.00;;;;;20.15;44.06;101604.94;5077204;28;45342;-61
2022/08/08 00:56:13;;;;;;;;;6.00;6.00;;;;;20.16;44.52;101606.66;5076844;28;45688;-63
2022/08/08 00:59:11;;;;;;;;;6.67;5.00;;;;;20.06;44.37;101594.88;5077081;28;45433;-63
2022/08/08 01:01:57;;;;;;;;;2.67;2.67;;;;;20.00;45.01;101599.78;5077620;27;45435;-61
2022/08/08 01:04:42;;;;;;;;;3.00;3.00;;;;;20.03;44.53;101604.06;5091625;27;45489;-62
2022/08/08 01:07:32;;;;;;;;;3.33;3.00;;;;;20.00;44.78;101601.63;5097556;27;45268;-59
2022/08/08 01:10:34;;;;;;;;;5.67;4.00;;;;;19.90;45.60;101595.22;5097240;27;45459;-60
2022/08/08 01:13:30;;;;;;;;;6.00;3.33;;;;;19.84;45.41;101610.09;5086589;27;45432;-62
2022/08/08 01:16:44;;;;;;;;;4.00;4.00;;;;;19.78;45.51;101588.94;5089574;27;45442;-63
2022/08/08 01:19:31;;;;;;;;;4.67;2.00;;;;;19.80;45.39;101587.03;5067744;27;46285;-61
2022/08/08 01:22:32;;;;;;;;;4.00;4.00;;;;;19.81;45.09;101591.44;5097206;27;45302;-63
2022/08/08 01:25:28;;;;;;;;;3.00;3.00;;;;;19.72;45.39;101587.59;5097059;27;45301;-62
2022/08/08 01:28:19;;;;;;;;;3.33;3.33;;;;;19.79;45.87;101596.06;5095262;27;45234;-64
2022/08/08 01:31:15;;;;;;;;;4.00;4.00;;;;;19.72;46.21;101592.16;5097032;27;46413;-62
2022/08/08 01:34:05;;;;;;;;;5.00;5.00;;;;;19.68;45.75;101590.69;5095976;27;45268;-63
2022/08/08 01:37:04;;;;;;;;;5.00;5.00;;;;;19.68;46.47;101587.97;5097073;27;45488;-62
2022/08/08 01:39:43;;;;;;;;;4.00;4.00;;;;;19.57;46.31;101577.16;5095019;27;45436;-63
2022/08/08 01:42:33;;;;;;;;;4.00;4.00;;;;;19.60;46.31;101593.09;5096217;27;45462;-62
2022/08/08 01:45:05;;;;;;;;;3.67;3.67;;;;;19.62;46.27;101594.69;5096800;27;45385;-61
2022/08/08 01:48:10;;;;;;;;;3.33;3.00;;;;;19.63;46.10;101595.56;5094926;27;45379;-64
2022/08/08 01:51:17;;;;;;;;;4.00;4.00;;;;;19.62;46.09;101596.53;5096008;27;45379;-62
2022/08/08 01:53:56;;;;;;;;;5.33;4.33;;;;;19.60;46.01;101595.81;5078588;27;45526;-62
2022/08/08 01:56:41;;;;;;;;;3.33;3.33;;;;;19.63;46.40;101593.72;5095116;27;45705;-61
2022/08/08 01:59:15;;;;;;;;;5.00;4.33;;;;;19.53;46.89;101589.13;5097004;27;45459;-62
2022/08/08 02:01:55;;;;;;;;;5.00;5.00;;;;;19.47;46.81;101598.56;5097382;27;45271;-61
2022/08/08 02:04:34;;;;;;;;;3.67;3.67;;;;;19.39;47.12;101587.50;5096326;27;45408;-62
2022/08/08 02:07:32;;;;;;;;;3.67;3.67;;;;;19.39;46.92;101599.16;5078683;27;45512;-65
2022/08/08 02:10:06;;;;;;;;;5.67;5.67;;;;;19.24;47.93;101600.34;5053475;27;45306;-65
2022/08/08 02:12:55;;;;;;;;;7.00;4.67;;;;;19.14;48.18;101594.81;5090661;27;45469;-60
2022/08/08 02:15:51;;;;;;;;;4.33;4.33;;;;;19.12;47.65;101593.16;5086391;27;45323;-62
2022/08/08 02:18:26;;;;;;;;;6.33;5.33;;;;;19.09;48.17;101596.09;5096813;27;45550;-62
2022/08/08 02:24:23;;;;;;;;;6.00;5.33;;;;;19.07;47.94;101590.84;5080203;27;45355;-62
2022/08/08 02:27:06;;;;;;;;;4.67;4.00;;;;;19.12;47.97;101595.88;5096422;27;46248;-62
2022/08/08 02:29:31;;;;;;;;;5.00;4.00;;;;;19.15;48.16;101592.97;5096990;27;45357;-61
2022/08/08 02:32:15;;;;;;;;;6.00;6.00;;;;;19.11;47.91;101586.06;5097207;27;45349;-62
2022/08/08 02:35:02;;;;;;;;;5.00;4.00;;;;;19.07;48.38;101593.53;5096934;27;45580;-61
2022/08/08 02:38:04;;;;;;;;;4.67;4.67;;;;;19.08;47.92;101595.25;5096999;27;45352;-59
2022/08/08 02:40:42;;;;;;;;;6.00;4.00;;;;;19.08;48.29;101589.84;5098308;27;45551;-61
2022/08/08 02:43:36;;;;;;;;;5.00;5.00;;;;;19.03;48.44;101599.28;5099893;27;45322;-62
2022/08/08 02:46:19;;;;;;;;;6.00;6.00;;;;;18.95;48.78;101593.59;5077515;27;45715;-61
2022/08/08 02:49:16;;;;;;;;;3.00;3.00;;;;;18.95;48.50;101593.59;5099717;27;45531;-60
2022/08/08 02:51:57;;;;;;;;;5.00;5.00;;;;;18.89;48.79;101596.78;5098995;27;45593;-62
2022/08/08 02:54:25;;;;;;;;;7.67;5.00;;;;;18.90;49.01;101590.41;5100131;27;45357;-59
2022/08/08 02:57:20;;;;;;;;;7.00;4.33;;;;;18.90;48.86;101580.47;5100552;27;45239;-61
2022/08/08 03:00:23;;;;;;;;;4.00;4.00;;;;;18.85;49.12;101599.66;5098514;27;46083;-61
2022/08/08 03:03:12;;;;;;;;;3.00;3.00;;;;;18.78;48.92;101590.34;5097814;27;45452;-59
2022/08/08 03:05:43;;;;;;;;;5.00;5.00;;;;;18.83;49.01;101596.22;5099555;27;45432;-59
2022/08/08 03:08:47;;;;;;;;;7.33;6.00;;;;;18.85;48.76;101591.59;5099816;27;45511;-61
2022/08/08 03:11:31;;;;;;;;;5.00;3.67;;;;;18.84;49.37;101602.47;5067133;27;45474;-60
2022/08/08 03:14:44;;;;;;;;;9.00;6.00;;;;;18.73;48.84;101584.41;5081053;27;45462;-60
2022/08/08 03:17:20;;;;;;;;;7.00;5.33;;;;;18.72;49.32;101596.16;5078847;28;45378;-60
2022/08/08 03:20:07;;;;;;;;;7.00;5.00;;;;;18.70;49.71;101600.81;5060684;28;45429;-59
2022/08/08 03:22:41;;;;;;;;;6.00;5.00;;;;;18.64;50.11;101597.72;5093512;27;46552;-61
2022/08/08 03:25:08;;;;;;;;;6.33;3.33;;;;;18.60;50.05;101599.75;5098799;27;45443;-61
2022/08/08 03:27:38;;;;;;;;;5.67;4.67;;;;;18.62;50.02;101595.13;5099136;27;45333;-61
2022/08/08 03:30:08;;;;;;;;;5.67;5.67;;;;;18.67;49.88;101598.34;5099396;27;45421;-61
2022/08/08 03:35:22;;;;;;;;;6.33;6.33;;;;;18.56;50.09;101600.94;5098935;27;45364;-63
2022/08/08 03:37:47;;;;;;;;;4.67;4.67;;;;;18.45;51.06;101600.88;5099001;27;45192;-63
2022/08/08 03:40:13;;;;;;;;;5.33;5.33;;;;;18.47;50.10;101598.91;5098875;27;45654;-62
2022/08/08 03:42:40;;;;;;;;;6.00;6.00;;;;;18.49;50.30;101597.88;5098327;27;45366;-62
2022/08/08 03:45:32;;;;;;;;;9.33;7.33;;;;;18.45;50.79;101608.94;5098609;27;45326;-63
2022/08/08 03:48:01;;;;;;;;;5.00;5.00;;;;;18.45;50.32;101611.66;5097118;27;45563;-62
2022/08/08 03:50:28;;;;;;;;;7.33;6.67;;;;;18.39;50.23;101595.94;5098852;27;45438;-59
2022/08/08 03:52:54;;;;;;;;;7.00;7.00;;;;;18.46;50.85;101608.84;5079532;27;45565;-60
2022/08/08 03:55:22;;;;;;;;;5.50;5.50;;;;;18.42;50.74;101611.88;5098769;27;45329;-61
2022/08/08 03:57:50;;;;;;;;;8.00;7.00;;;;;18.48;50.71;101614.09;5098490;27;45389;-62
2022/08/08 04:00:18;;;;;;;;;7.00;7.00;;;;;18.34;50.87;101620.50;5097866;27;45499;-63
2022/08/08 04:02:54;;;;;;;;;6.33;6.00;;;;;18.31;50.79;101622.56;5098129;27;45664;-60
2022/08/08 04:05:19;;;;;;;;;7.33;7.33;;;;;18.26;50.68;101613.00;5098331;27;45322;-61
2022/08/08 04:07:45;;;;;;;;;6.00;6.00;;;;;18.22;51.55;101616.84;5098433;27;45310;-60
2022/08/08 04:10:10;;;;;;;;;6.00;6.00;;;;;18.24;51.42;101628.41;5097771;27;46950;-63
2022/08/08 04:12:36;;;;;;;;;4.33;4.33;;;;;18.24;51.49;101631.09;5073305;28;45435;-61
2022/08/08 04:15:03;;;;;;;;;5.00;5.00;;;;;18.20;51.31;101618.81;5077468;28;45240;-59
2022/08/08 04:17:28;;;;;;;;;7.67;7.00;;;;;18.32;51.24;101621.59;5077790;28;45322;-60
2022/08/08 04:19:55;;;;;;;;;7.33;7.33;;;;;18.32;51.17;101624.28;5083078;27;45279;-62
2022/08/08 04:22:21;;;;;;;;;7.33;6.00;;;;;18.23;50.95;101615.91;5098340;27;46092;-61
2022/08/08 04:24:46;;;;;;;;;7.00;6.00;;;;;18.31;50.93;101636.03;5097730;27;45758;-61
2022/08/08 04:27:12;;;;;;;;;7.33;7.33;;;;;18.28;51.79;101627.19;5098357;27;45711;-63
2022/08/08 04:29:37;;;;;;;;;6.33;6.33;;;;;18.21;51.56;101631.28;5097472;27;45484;-61
2022/08/08 04:32:04;;;;;;;;;7.00;7.00;;;;;18.16;51.28;101632.59;5097934;27;45495;-60
2022/08/08 04:34:30;;;;;;;;;6.00;6.00;;;;;18.10;51.70;101639.31;5079289;27;45338;-61
2022/08/08 04:36:55;;;;;;;;;6.67;6.67;;;;;18.14;51.48;101638.09;5098340;27;45211;-62
2022/08/08 04:39:21;;;;;;;;;9.00;9.00;;;;;18.16;51.68;101633.47;5097789;27;45265;-62
2022/08/08 04:41:46;;;;;;;;;7.00;7.00;;;;;18.16;51.38;101633.47;5077037;28;46439;-62
2022/08/08 04:44:11;;;;;;;;;9.00;7.00;;;;;18.07;52.13;101630.56;5077464;28;45295;-60
2022/08/08 04:46:37;;;;;;;;;5.67;5.67;;;;;18.00;52.59;101637.34;5077883;28;45296;-60
2022/08/08 04:49:02;;;;;;;;;8.33;8.00;;;;;17.95;52.28;101643.03;5077784;28;45576;-62
2022/08/08 04:51:27;;;;;;;;;7.00;7.00;;;;;17.85;52.70;101631.22;5096275;27;45423;-61
2022/08/08 04:53:53;;;;;;;;;9.00;9.00;;;;;17.86;52.59;101651.78;5100214;27;45235;-61
2022/08/08 04:56:18;;;;;;;;;8.00;7.00;;;;;17.84;52.76;101646.50;5098788;27;45223;-61
2022/08/08 04:58:44;;;;;;;;;6.67;6.67;;;;;17.80;52.60;101642.28;5098013;27;45173;-60
2022/08/08 05:01:09;;;;;;;;;7.00;7.00;;;;;17.78;52.91;101648.75;5096283;27;46283;-61
2022/08/08 05:03:35;;;;;;;;;10.00;6.33;;;;;17.77;52.70;101649.72;5097819;27;45469;-59
2022/08/08 05:06:00;;;;;;;;;6.33;6.33;;;;;17.74;53.05;101653.50;5097531;27;45393;-62
2022/08/08 05:08:26;;;;;;;;;6.33;6.33;;;;;17.75;53.19;101659.75;5097936;27;45323;-62
2022/08/08 05:10:52;;;;;;;;;11.33;9.00;;;;;17.70;53.50;101657.34;5096495;27;45422;-60
2022/08/08 05:13:17;;;;;;;;;8.67;8.67;;;;;17.67;53.69;101669.16;5084914;27;45461;-63
2022/08/08 05:15:43;;;;;;;;;9.50;8.50;;;;;17.61;53.67;101661.53;5076716;28;45474;-61
2022/08/08 05:18:08;;;;;;;;;8.67;8.33;;;;;17.62;53.31;101665.06;5077027;28;45490;-60
2022/08/08 05:20:33;;;;;;;;;6.67;6.00;;;;;17.73;53.16;101659.00;5086291;27;45592;-61
2022/08/08 05:22:59;;;;;;;;;8.00;8.00;;;;;17.80;52.91;101662.97;5078473;27;45450;-63
2022/08/08 05:25:24;;;;;;;;;10.67;9.00;;;;;17.82;53.05;101663.72;5097560;27;45475;-59
2022/08/08 05:27:52;;;;;;;;;8.00;8.00;;;;;17.85;52.55;101666.22;5097488;27;46005;-61
2022/08/08 05:30:18;;;;;;;;;9.33;9.33;;;;;17.88;53.07;101668.69;5078023;27;46233;-62
2022/08/08 05:32:43;;;;;;;;;7.67;7.67;;;;;17.81;53.24;101675.44;5095499;27;45535;-60
2022/08/08 05:35:12;;;;;;;;;10.33;9.00;;;;;17.81;53.40;101668.22;5094449;27;45484;-64
2022/08/08 05:37:38;;;;;;;;;8.67;8.67;;;;;17.83;52.95;101673.50;5097634;27;45502;-63
2022/08/08 05:40:05;;;;;;;;;11.00;9.33;;;;;17.90;52.94;101672.97;5095275;27;46912;-64
2022/08/08 05:42:33;;;;;;;;;9.67;9.00;;;;;17.90;52.81;101681.06;5097032;27;45346;-63
2022/08/08 05:45:00;;;;;;;;;10.67;10.00;;;;;17.93;52.95;101685.34;5096316;27;45332;-64
2022/08/08 05:47:26;;;;;;;;;7.00;7.00;;;;;17.89;52.72;101689.25;5097219;27;45871;-61
2022/08/08 05:49:52;;;;;;;;;12.33;8.33;;;;;17.93;52.83;101688.06;5096473;27;45396;-64
2022/08/08 05:52:19;;;;;;;;;12.00;11.00;;;;;17.88;53.15;101676.75;5095775;27;45391;-62
2022/08/08 05:54:44;;;;;;;;;10.00;9.67;;;;;17.90;53.20;101686.44;5096997;27;45633;-62
2022/08/08 05:57:16;;;;;;;;;12.33;11.00;;;;;17.83;53.04;101681.56;5095651;27;45560;-61
2022/08/08 05:59:46;;;;;;;;;9.33;9.33;;;;;17.75;54.12;101678.56;5078155;27;46144;-62
2022/08/08 06:05:11;;;;;;;;;7.33;7.33;;;;;17.73;54.05;101680.50;5096694;27;45417;-63
2022/08/08 06:07:41;;;;;;;;;11.67;9.33;;;;;17.79;54.33;101688.16;5096841;27;45244;-63
2022/08/08 06:10:10;;;;;;;;;11.00;10.33;;;;;17.81;53.82;101683.50;5078466;27;45477;-61
2022/08/08 06:12:36;;;;;;;;;13.00;11.67;;;;;17.79;54.06;101688.16;5088377;27;45453;-60
2022/08/08 06:15:07;;;;;;;;;11.33;10.67;;;;;17.85;53.49;101690.44;5061315;28;45277;-63
2022/08/08 06:17:38;;;;;;;;;9.00;9.00;;;;;17.91;53.72;101698.94;5079959;28;45318;-62
2022/08/08 06:20:07;;;;;;;;;10.67;9.00;;;;;17.87;53.98;101696.56;5060880;28;47227;-61
2022/08/08 06:22:32;;;;;;;;;13.00;11.00;;;;;17.90;53.77;101702.59;5091537;27;45393;-61
2022/08/08 06:24:58;;;;;;;;;11.67;11.00;;;;;17.98;53.55;101702.06;5100051;27;45346;-59
2022/08/08 06:27:54;;;;;;;;;10.00;10.00;;;;;18.06;52.90;101702.38;5100419;27;45705;-62
2022/08/08 06:30:20;;;;;;;;;7.67;7.67;;;;;18.12;53.44;101710.03;5090431;27;47194;-60
2022/08/08 06:33:02;;;;;;;;;10.33;9.00;;;;;18.15;53.46;101714.34;5098992;27;45334;-61
2022/08/08 06:35:29;;;;;;;;;10.00;9.33;;;;;18.10;53.40;101717.38;5100715;27;45677;-61
2022/08/08 06:38:00;;;;;;;;;11.67;10.00;;;;;18.11;53.21;101719.09;5099872;27;45326;-59
2022/08/08 06:40:30;;;;;;;;;11.67;6.67;;;;;18.08;53.12;101710.34;5099809;27;46125;-60
2022/08/08 06:43:03;;;;;;;;;10.00;10.00;;;;;18.16;53.31;101713.38;5098705;27;45344;-61
2022/08/08 06:45:32;;;;;;;;;10.67;8.00;;;;;18.20;52.83;101721.13;5099882;27;45373;-60
2022/08/08 06:47:59;;;;;;;;;11.33;9.33;;;;;18.26;52.76;101719.84;5081719;27;45478;-62
2022/08/08 06:50:25;;;;;;;;;10.33;10.33;;;;;18.39;52.46;101720.69;5099649;27;45472;-61
2022/08/08 06:52:51;;;;;;;;;6.67;6.67;;;;;18.40;52.36;101729.63;5099144;27;45224;-65
2022/08/08 06:55:20;;;;;;;;;13.67;12.67;;;;;18.43;52.35;101721.34;5100248;27;45405;-61
2022/08/08 06:57:46;;;;;;;;;13.00;10.33;;;;;18.54;52.31;101724.13;5082157;27;45457;-62
2022/08/08 07:00:12;;;;;;;;;9.00;9.00;;;;;18.55;52.02;101731.25;5099778;27;45424;-62
2022/08/08 07:02:44;;;;;;;;;9.33;8.33;;;;;18.58;51.63;101715.69;5099915;27;45352;-62
2022/08/08 07:05:14;;;;;;;;;10.67;9.33;;;;;18.70;51.72;101719.38;5097699;27;45430;-62
2022/08/08 07:07:56;;;;;;;;;14.67;9.33;;;;;18.72;51.77;101727.34;5080592;27;45454;-61
2022/08/08 07:10:24;;;;;;;;;9.33;9.33;;;;;18.63;51.92;101723.47;5099100;27;46908;-61
2022/08/08 07:13:02;;;;;;;;;13.00;12.00;;;;;18.62;51.43;101720.88;5090692;27;45321;-63
2022/08/08 07:15:52;;;;;;;;;14.33;9.00;;;;;18.79;51.39;101724.13;5078946;28;45231;-63
2022/08/08 07:18:36;;;;;;;;;11.00;10.33;;;;;18.96;51.13;101738.19;5079081;28;45389;-63
2022/08/08 07:21:05;;;;;;;;;10.00;10.00;;;;;18.98;51.12;101730.84;5078911;28;45463;-63
2022/08/08 07:23:51;;;;;;;;;10.67;9.33;;;;;19.10;50.56;101744.28;5059999;28;45339;-63
2022/08/08 07:26:20;;;;;;;;;10.67;10.33;;;;;19.11;50.47;101726.28;5077329;28;45425;-62
2022/08/08 07:28:47;;;;;;;;;15.00;8.33;;;;;19.24;50.04;101735.19;5089459;27;45553;-59
2022/08/08 07:31:14;;;;;;;;;11.33;11.00;;;;;19.31;50.05;101744.56;5098624;27;46391;-62
2022/08/08 07:33:41;;;;;;;;;7.33;7.33;;;;;19.33;50.30;101739.91;5097261;27;45391;-67
2022/08/08 07:36:08;;;;;;;;;17.33;11.00;;;;;19.39;50.21;101747.50;5098541;27;45226;-61
2022/08/08 07:38:36;;;;;;;;;9.00;9.00;;;;;19.43;50.16;101745.47;5081147;27;45329;-62
2022/08/08 07:41:02;;;;;;;;;8.00;8.00;;;;;19.53;49.93;101741.13;5079404;27;45511;-63
2022/08/08 07:43:31;;;;;;;;;8.33;8.33;;;;;19.60;49.74;101739.69;5098496;27;45357;-61
2022/08/08 07:45:57;;;;;;;;;9.00;9.00;;;;;19.67;49.51;101746.34;5098609;27;45425;-59
2022/08/08 07:48:22;;;;;;;;;8.67;8.67;;;;;19.73;49.74;101742.31;5098702;27;45551;-61
2022/08/08 07:50:49;;;;;;;;;6.67;5.67;;;;;19.84;49.24;101747.75;5098411;27;45495;-60
2022/08/08 07:53:23;;;;;;;;;9.00;9.00;;;;;19.94;48.68;101743.38;5097663;27;45539;-63
2022/08/08 07:55:53;;;;;;;;;7.00;7.00;;;;;19.98;48.29;101738.59;5080066;27;45338;-60
2022/08/08 07:58:30;;;;;;;;;9.33;8.00;;;;;20.10;48.38;101744.88;5080359;27;45356;-62
2022/08/08 08:01:04;;;;;;;;;8.33;7.00;;;;;20.18;48.10;101747.81;5079947;27;45292;-60
2022/08/08 08:04:02;;;;;;;;;8.67;8.67;;;;;20.12;47.86;101726.72;5097164;27;45482;-61
2022/08/08 08:06:32;;;;;;;;;6.67;5.00;;;;;20.35;47.42;101744.69;5080144;27;45388;-60
2022/08/08 08:09:18;;;;;;;;;6.00;6.00;;;;;20.38;47.22;101739.03;5098452;27;45549;-63
2022/08/08 08:11:48;;;;;;;;;6.67;5.67;;;;;20.45;47.52;101739.44;5098228;27;45486;-60
2022/08/08 08:14:27;;;;;;;;;6.00;6.00;;;;;20.54;47.28;101739.56;5077887;27;45459;-61
2022/08/08 08:16:54;;;;;;;;;9.00;9.00;;;;;20.67;46.53;101735.88;5091454;27;45773;-62
2022/08/08 08:19:25;;;;;;;;;8.00;6.00;;;;;20.63;46.34;101720.88;5098404;27;45432;-63
2022/08/08 08:21:51;;;;;;;;;9.00;7.00;;;;;20.77;46.29;101744.97;5079551;27;45514;-59
2022/08/08 08:24:16;;;;;;;;;5.00;5.00;;;;;20.91;45.63;101742.00;5097690;27;45362;-61
2022/08/08 08:26:42;;;;;;;;;7.67;7.00;;;;;21.02;45.39;101743.84;5097955;27;45471;-61
2022/08/08 08:29:08;;;;;;;;;6.00;6.00;;;;;21.13;45.72;101747.38;5097354;27;45362;-62
2022/08/08 08:31:34;;;;;;;;;6.00;6.00;;;;;21.20;44.61;101748.56;5079510;27;47166;-61
2022/08/08 08:33:59;;;;;;;;;9.33;8.00;;;;;21.44;44.42;101739.44;5096056;27;45400;-62
2022/08/08 08:36:24;;;;;;;;;5.33;5.33;;;;;21.86;43.89;101750.34;5096820;27;45458;-60
2022/08/08 08:38:50;;;;;;;;;5.00;5.00;;;;;22.33;42.88;101746.28;5097882;27;45582;-62
2022/08/08 08:41:18;;;;;;;;;3.33;3.33;;;;;22.76;41.88;101735.19;5097680;27;45468;-62
2022/08/08 08:43:45;;;;;;;;;6.00;6.00;;;;;23.27;41.66;101727.94;5097882;27;45389;-65
2022/08/08 08:46:12;;;;;;;;;5.67;5.67;;;;;23.75;39.94;101734.28;5096758;27;45215;-61
2022/08/08 08:48:40;;;;;;;;;6.33;6.33;;;;;24.16;38.90;101725.91;5098073;27;45484;-60
2022/08/08 08:51:10;;;;;;;;;8.00;6.00;;;;;24.65;39.71;101722.94;5096745;27;45418;-60
2022/08/08 08:53:49;;;;;;;;;8.00;5.33;;;;;25.24;37.63;101735.22;5097784;27;45386;-61
2022/08/08 08:56:17;;;;;;;;;5.25;5.25;;;;;25.70;36.30;101727.03;5096907;27;45317;-59
2022/08/08 08:58:45;;;;;;;;;7.50;6.25;;;;;25.98;35.49;101728.63;5077441;28;45347;-62
2022/08/08 09:01:13;;;;;;;;;6.50;6.00;;;;;26.26;34.30;101742.09;5077317;28;46218;-61
2022/08/08 09:03:49;;;;;;;;;7.00;7.00;;;;;26.51;35.82;101732.22;5078438;28;45352;-60
2022/08/08 09:06:39;;;;;;;;;7.50;6.50;;;;;26.95;34.38;101722.00;5076498;27;45433;-61
2022/08/08 09:09:09;;;;;;;;;6.75;5.75;;;;;27.28;33.62;101715.66;5071182;28;45505;-60
2022/08/08 09:11:35;;;;;;;;;6.00;5.00;;;;;27.57;32.76;101723.38;5059262;28;45393;-62
2022/08/08 09:14:02;;;;;;;;;5.80;5.80;;;;;27.73;31.54;101725.28;5095428;27;45373;-61
2022/08/08 09:16:30;;;;;;;;;5.20;5.20;;;;;28.00;33.22;101721.38;5097663;27;45246;-60
2022/08/08 09:18:56;;;;;;;;;8.00;5.50;;;;;28.34;32.02;101721.16;5096820;27;45284;-63
2022/08/08 09:21:22;;;;;;;;;9.00;6.00;;;;;28.65;31.81;101706.72;5097312;27;45554;-62
2022/08/08 09:23:48;;;;;;;;;5.20;4.60;;;;;28.89;29.91;101709.34;5096514;27;45424;-64
2022/08/08 09:26:37;;;;;;;;;6.25;5.75;;;;;28.96;29.21;101714.97;5097344;27;45420;-65
2022/08/08 09:29:06;;;;;;;;;3.80;3.80;;;;;28.99;29.34;101709.13;5097397;27;45510;-60
2022/08/08 09:31:59;;;;;;;;;4.00;4.00;;;;;29.31;30.38;101687.03;5094830;27;46735;-63
2022/08/08 09:34:30;;;;;;;;;7.00;5.20;;;;;29.77;28.65;101706.19;5096694;27;45246;-61
2022/08/08 09:37:03;;;;;;;;;4.60;4.40;;;;;29.91;27.47;101710.00;5080019;27;45397;-63
2022/08/08 09:39:40;;;;;;;;;7.80;5.80;;;;;29.91;27.76;101701.78;5097015;27;45563;-62
2022/08/08 09:42:12;;;;;;;;;5.00;3.40;;;;;30.16;27.89;101708.75;5077813;27;46362;-63
2022/08/08 09:45:01;;;;;;;;;4.00;4.00;;;;;30.62;27.92;101705.00;5078230;27;45436;-63
2022/08/08 09:47:29;;;;;;;;;4.80;4.80;;;;;30.53;26.49;101705.09;5096139;27;45432;-65
2022/08/08 09:50:01;;;;;;;;;6.40;5.20;;;;;30.66;27.56;101707.19;5096734;27;45449;-63
2022/08/08 09:52:32;;;;;;;;;5.20;5.00;;;;;30.80;28.43;101705.47;5095663;27;45274;-63
2022/08/08 09:54:58;;;;;;;;;3.40;3.40;;;;;30.99;27.12;101693.00;5095448;27;45734;-64
2022/08/08 09:57:45;;;;;;;;;5.40;4.60;;;;;30.88;25.50;101702.63;5096793;27;45511;-61
2022/08/08 10:00:13;;;;;;;;;4.20;4.20;;;;;30.75;25.84;101705.22;5097146;27;45544;-63
2022/08/08 10:02:44;;;;;;;;;6.00;4.40;;;;;30.80;25.78;101694.50;5077459;27;46372;-61
2022/08/08 10:05:15;;;;;;;;;7.80;5.00;;;;;30.76;26.48;101698.69;5097050;27;45312;-61
2022/08/08 10:07:59;;;;;;;;;3.60;3.60;;;;;30.93;26.14;101693.81;5097354;27;45431;-62
2022/08/08 10:10:39;;;;;;;;;5.00;5.00;;;;;30.99;25.46;101693.00;5078784;27;45934;-62
2022/08/08 10:13:18;;;;;;;;;4.00;4.00;;;;;30.96;25.86;101698.91;5085982;27;45370;-61
2022/08/08 10:15:46;;;;;;;;;5.00;5.00;;;;;30.95;25.97;101683.47;5093588;27;45421;-62
2022/08/08 10:18:12;;;;;;;;;4.40;4.40;;;;;30.94;26.18;101693.59;5096857;27;45429;-62
2022/08/08 10:20:44;;;;;;;;;6.00;6.00;;;;;30.79;25.61;101687.28;5078503;27;45340;-62
2022/08/08 10:23:11;;;;;;;;;5.60;5.60;;;;;30.57;26.59;101688.22;5077763;27;47719;-61
2022/08/08 10:25:41;;;;;;;;;5.80;5.80;;;;;30.44;26.87;101681.53;5085216;27;45449;-62
2022/08/08 10:28:14;;;;;;;;;6.80;4.60;;;;;30.26;26.82;101686.53;5085708;27;45354;-60
2022/08/08 10:30:57;;;;;;;;;5.40;4.60;;;;;29.85;26.65;101689.69;5076299;28;45343;-62
2022/08/08 10:33:31;;;;;;;;;5.80;5.80;;;;;29.45;27.10;101679.03;5075793;28;46268;-64
2022/08/08 10:36:00;;;;;;;;;4.60;4.00;;;;;29.13;28.01;101672.75;5093631;27;45447;-64
2022/08/08 10:38:31;;;;;;;;;6.60;3.20;;;;;28.87;28.20;101681.28;5094352;27;45564;-63
2022/08/08 10:41:02;;;;;;;;;6.80;6.00;;;;;28.67;28.48;101674.53;5087748;27;45571;-63
2022/08/08 10:43:38;;;;;;;;;5.00;5.00;;;;;28.36;28.75;101683.53;5075904;28;45350;-63
2022/08/08 10:46:24;;;;;;;;;5.00;5.00;;;;;28.24;28.95;101684.03;5075883;28;45475;-62
2022/08/08 10:48:49;;;;;;;;;8.20;5.60;;;;;27.98;28.51;101679.66;5075532;28;45508;-61
2022/08/08 10:51:15;;;;;;;;;5.00;5.00;;;;;27.86;29.42;101672.81;5084813;27;45494;-62
2022/08/08 10:53:40;;;;;;;;;4.75;4.75;;;;;27.75;29.41;101671.31;5094909;27;46042;-62
2022/08/08 10:56:09;;;;;;;;;5.00;5.00;;;;;27.67;29.32;101673.19;5095620;27;45487;-61
2022/08/08 10:58:34;;;;;;;;;4.80;4.00;;;;;27.61;30.06;101675.56;5082718;27;45516;-62
2022/08/08 11:01:07;;;;;;;;;6.50;5.00;;;;;27.57;30.28;101674.19;5079087;28;45367;-63
2022/08/08 11:03:43;;;;;;;;;7.40;6.00;;;;;27.55;30.07;101665.31;5089635;27;45429;-64
2022/08/08 11:06:10;;;;;;;;;5.00;5.00;;;;;27.37;28.97;101667.38;5099196;27;45400;-64
2022/08/08 11:08:36;;;;;;;;;5.60;4.00;;;;;27.39;29.16;101664.47;5099071;27;45414;-62
2022/08/08 11:11:10;;;;;;;;;5.00;4.75;;;;;27.37;28.85;101655.59;5081133;27;45347;-63
2022/08/08 11:13:43;;;;;;;;;5.80;5.80;;;;;27.38;29.68;101663.59;5099132;27;45571;-61
2022/08/08 11:16:31;;;;;;;;;4.20;4.20;;;;;27.32;29.62;101669.72;5097823;27;45456;-63
2022/08/08 11:18:59;;;;;;;;;4.00;3.60;;;;;27.27;29.49;101666.66;5080627;27;45340;-61
2022/08/08 11:21:29;;;;;;;;;7.00;6.00;;;;;27.13;30.04;101653.66;5099283;27;45512;-62
2022/08/08 11:23:58;;;;;;;;;4.50;3.75;;;;;27.22;29.42;101663.59;5097438;27;47829;-61
2022/08/08 11:26:26;;;;;;;;;6.80;4.80;;;;;27.33;29.82;101676.91;5099092;27;45302;-62
2022/08/08 11:28:54;;;;;;;;;8.80;4.00;;;;;27.43;29.24;101666.66;5079916;27;45493;-62
2022/08/08 11:31:24;;;;;;;;;4.00;4.00;;;;;27.49;28.68;101654.22;5097706;27;45468;-62
2022/08/08 11:33:54;;;;;;;;;5.60;5.00;;;;;27.48;29.12;101657.97;5078412;28;45919;-63
2022/08/08 11:36:21;;;;;;;;;3.00;2.40;;;;;27.49;28.14;101655.06;5078595;28;45444;-59
2022/08/08 11:38:47;;;;;;;;;6.60;5.20;;;;;27.57;28.34;101657.78;5079084;28;45453;-62
2022/08/08 11:41:15;;;;;;;;;3.00;3.00;;;;;27.62;28.05;101647.22;5095665;27;45565;-61
2022/08/08 11:43:43;;;;;;;;;4.00;4.00;;;;;27.66;27.97;101649.63;5098877;27;45361;-63
2022/08/08 11:46:09;;;;;;;;;5.60;5.00;;;;;27.59;28.16;101644.81;5098876;27;45538;-63
2022/08/08 11:48:36;;;;;;;;;5.00;5.00;;;;;27.65;28.80;101645.19;5098962;27;45416;-61
2022/08/08 11:51:03;;;;;;;;;6.00;3.00;;;;;27.64;27.90;101636.13;5099089;27;45338;-64
2022/08/08 11:53:30;;;;;;;;;3.40;3.40;;;;;27.85;27.93;101643.78;5098329;27;45642;-64
2022/08/08 11:55:55;;;;;;;;;4.00;4.00;;;;;27.90;27.37;101633.19;5080757;27;45310;-61
2022/08/08 11:58:31;;;;;;;;;5.00;4.00;;;;;27.96;26.89;101631.63;5080766;27;45281;-60
2022/08/08 12:00:57;;;;;;;;;4.50;4.25;;;;;27.89;27.15;101639.69;5080667;27;45549;-63
2022/08/08 12:03:25;;;;;;;;;4.50;4.50;;;;;27.97;26.60;101628.72;5097972;27;46256;-63
2022/08/08 12:05:52;;;;;;;;;4.60;4.00;;;;;28.15;25.47;101637.59;5078036;28;45371;-59